sensor_id;sensor_type;location;lat;lon;timestamp;P1;durP1;ratioP1;P2;durP2;ratioP2
60169;SDS011;46042;49.444;6.862;2023-06-14T00:01:14;9.05;;;5.40;;
60169;SDS011;46042;49.444;6.862;2023-06-14T00:03:41;8.77;;;5.53;;
60169;SDS011;46042;49.444;6.862;2023-06-14T00:06:07;12.75;;;5.57;;
60169;SDS011;46042;49.444;6.862;2023-06-14T00:08:34;10.15;;;5.88;;
60169;SDS011;46042;49.444;6.862;2023-06-14T00:11:01;13.63;;;5.55;;
60169;SDS011;46042;49.444;6.862;2023-06-14T00:13:27;10.73;;;5.65;;
60169;SDS011;46042;49.444;6.862;2023-06-14T00:15:54;10.95;;;5.22;;
60169;SDS011;46042;49.444;6.862;2023-06-14T00:18:21;10.20;;;5.65;;
60169;SDS011;46042;49.444;6.862;2023-06-14T00:20:50;13.20;;;5.78;;
60169;SDS011;46042;49.444;6.862;2023-06-14T00:23:18;10.00;;;5.38;;
60169;SDS011;46042;49.444;6.862;2023-06-14T00:25:44;9.77;;;5.68;;
60169;SDS011;46042;49.444;6.862;2023-06-14T00:28:11;7.75;;;5.10;;
60169;SDS011;46042;49.444;6.862;2023-06-14T00:30:38;8.77;;;5.18;;
60169;SDS011;46042;49.444;6.862;2023-06-14T00:33:05;7.32;;;4.93;;
60169;SDS011;46042;49.444;6.862;2023-06-14T00:35:31;8.38;;;5.20;;
60169;SDS011;46042;49.444;6.862;2023-06-14T00:37:58;9.43;;;5.45;;
60169;SDS011;46042;49.444;6.862;2023-06-14T00:40:25;8.45;;;5.25;;
60169;SDS011;46042;49.444;6.862;2023-06-14T00:42:52;10.93;;;6.10;;
60169;SDS011;46042;49.444;6.862;2023-06-14T00:45:19;8.70;;;5.63;;
60169;SDS011;46042;49.444;6.862;2023-06-14T00:47:46;11.82;;;5.88;;
60169;SDS011;46042;49.444;6.862;2023-06-14T00:50:14;9.90;;;5.57;;
60169;SDS011;46042;49.444;6.862;2023-06-14T00:52:40;10.75;;;5.40;;
60169;SDS011;46042;49.444;6.862;2023-06-14T00:55:07;9.63;;;5.43;;
60169;SDS011;46042;49.444;6.862;2023-06-14T00:57:34;8.15;;;5.38;;
60169;SDS011;46042;49.444;6.862;2023-06-14T01:00:04;10.18;;;5.50;;
60169;SDS011;46042;49.444;6.862;2023-06-14T01:02:38;10.30;;;5.50;;
60169;SDS011;46042;49.444;6.862;2023-06-14T01:05:06;11.15;;;5.13;;
60169;SDS011;46042;49.444;6.862;2023-06-14T01:13:19;7.53;;;5.10;;
60169;SDS011;46042;49.444;6.862;2023-06-14T01:15:50;7.97;;;5.30;;
60169;SDS011;46042;49.444;6.862;2023-06-14T01:18:17;8.90;;;5.07;;
60169;SDS011;46042;49.444;6.862;2023-06-14T01:20:45;8.20;;;5.13;;
60169;SDS011;46042;49.444;6.862;2023-06-14T01:23:16;13.68;;;5.35;;
60169;SDS011;46042;49.444;6.862;2023-06-14T01:25:44;8.65;;;5.60;;
60169;SDS011;46042;49.444;6.862;2023-06-14T01:28:11;7.45;;;5.07;;
60169;SDS011;46042;49.444;6.862;2023-06-14T01:30:39;10.40;;;5.85;;
60169;SDS011;46042;49.444;6.862;2023-06-14T01:33:12;8.48;;;5.28;;
60169;SDS011;46042;49.444;6.862;2023-06-14T01:35:44;9.65;;;5.43;;
60169;SDS011;46042;49.444;6.862;2023-06-14T01:38:14;11.88;;;5.40;;
60169;SDS011;46042;49.444;6.862;2023-06-14T01:40:42;8.38;;;5.30;;
60169;SDS011;46042;49.444;6.862;2023-06-14T01:43:11;8.23;;;5.38;;
60169;SDS011;46042;49.444;6.862;2023-06-14T01:45:41;8.52;;;5.22;;
60169;SDS011;46042;49.444;6.862;2023-06-14T01:48:09;9.90;;;5.82;;
60169;SDS011;46042;49.444;6.862;2023-06-14T01:50:36;13.80;;;5.95;;
60169;SDS011;46042;49.444;6.862;2023-06-14T01:53:05;11.93;;;5.97;;
60169;SDS011;46042;49.444;6.862;2023-06-14T01:55:33;9.27;;;5.70;;
60169;SDS011;46042;49.444;6.862;2023-06-14T01:58:06;8.23;;;5.40;;
60169;SDS011;46042;49.444;6.862;2023-06-14T02:00:33;11.45;;;5.88;;
60169;SDS011;46042;49.444;6.862;2023-06-14T02:02:59;9.52;;;5.75;;
60169;SDS011;46042;49.444;6.862;2023-06-14T02:05:26;8.18;;;5.20;;
60169;SDS011;46042;49.444;6.862;2023-06-14T02:07:53;7.97;;;5.43;;
60169;SDS011;46042;49.444;6.862;2023-06-14T02:10:19;13.05;;;5.75;;
60169;SDS011;46042;49.444;6.862;2023-06-14T02:12:46;10.57;;;5.93;;
60169;SDS011;46042;49.444;6.862;2023-06-14T02:15:13;11.10;;;6.03;;
60169;SDS011;46042;49.444;6.862;2023-06-14T02:17:46;11.35;;;5.38;;
60169;SDS011;46042;49.444;6.862;2023-06-14T02:20:16;11.68;;;6.18;;
60169;SDS011;46042;49.444;6.862;2023-06-14T02:22:44;11.70;;;6.40;;
60169;SDS011;46042;49.444;6.862;2023-06-14T02:25:11;11.52;;;6.50;;
60169;SDS011;46042;49.444;6.862;2023-06-14T02:27:38;12.38;;;6.50;;
60169;SDS011;46042;49.444;6.862;2023-06-14T02:30:05;11.73;;;6.15;;
60169;SDS011;46042;49.444;6.862;2023-06-14T02:32:32;9.48;;;6.68;;
60169;SDS011;46042;49.444;6.862;2023-06-14T02:35:02;10.32;;;6.38;;
60169;SDS011;46042;49.444;6.862;2023-06-14T02:37:29;12.23;;;6.68;;
60169;SDS011;46042;49.444;6.862;2023-06-14T02:39:56;9.18;;;6.13;;
60169;SDS011;46042;49.444;6.862;2023-06-14T02:42:22;11.60;;;6.22;;
60169;SDS011;46042;49.444;6.862;2023-06-14T02:44:49;8.57;;;6.00;;
60169;SDS011;46042;49.444;6.862;2023-06-14T02:47:18;11.10;;;6.45;;
60169;SDS011;46042;49.444;6.862;2023-06-14T02:49:45;10.95;;;6.82;;
60169;SDS011;46042;49.444;6.862;2023-06-14T02:52:15;9.68;;;6.30;;
60169;SDS011;46042;49.444;6.862;2023-06-14T02:54:42;13.85;;;6.07;;
60169;SDS011;46042;49.444;6.862;2023-06-14T02:57:09;9.82;;;6.35;;
60169;SDS011;46042;49.444;6.862;2023-06-14T02:59:37;8.60;;;5.70;;
60169;SDS011;46042;49.444;6.862;2023-06-14T03:02:03;11.23;;;6.07;;
60169;SDS011;46042;49.444;6.862;2023-06-14T03:04:31;10.77;;;5.93;;
60169;SDS011;46042;49.444;6.862;2023-06-14T03:07:03;7.88;;;5.75;;
60169;SDS011;46042;49.444;6.862;2023-06-14T03:09:36;11.68;;;6.10;;
60169;SDS011;46042;49.444;6.862;2023-06-14T03:12:04;9.73;;;5.93;;
60169;SDS011;46042;49.444;6.862;2023-06-14T03:14:33;7.65;;;5.68;;
60169;SDS011;46042;49.444;6.862;2023-06-14T03:17:01;10.32;;;6.15;;
60169;SDS011;46042;49.444;6.862;2023-06-14T03:19:31;13.45;;;6.30;;
60169;SDS011;46042;49.444;6.862;2023-06-14T03:21:58;10.02;;;6.07;;
60169;SDS011;46042;49.444;6.862;2023-06-14T03:24:25;8.38;;;5.55;;
60169;SDS011;46042;49.444;6.862;2023-06-14T03:26:54;11.90;;;6.47;;
60169;SDS011;46042;49.444;6.862;2023-06-14T03:29:20;12.25;;;6.05;;
60169;SDS011;46042;49.444;6.862;2023-06-14T03:32:00;9.43;;;5.60;;
60169;SDS011;46042;49.444;6.862;2023-06-14T03:34:28;7.30;;;5.53;;
60169;SDS011;46042;49.444;6.862;2023-06-14T03:36:55;10.20;;;6.35;;
60169;SDS011;46042;49.444;6.862;2023-06-14T03:39:22;13.27;;;6.13;;
60169;SDS011;46042;49.444;6.862;2023-06-14T03:41:48;8.07;;;5.93;;
60169;SDS011;46042;49.444;6.862;2023-06-14T03:44:16;7.97;;;5.60;;
60169;SDS011;46042;49.444;6.862;2023-06-14T03:46:47;9.85;;;6.32;;
60169;SDS011;46042;49.444;6.862;2023-06-14T03:49:14;10.73;;;6.00;;
60169;SDS011;46042;49.444;6.862;2023-06-14T03:51:42;7.75;;;5.65;;
60169;SDS011;46042;49.444;6.862;2023-06-14T03:54:09;16.77;;;6.47;;
60169;SDS011;46042;49.444;6.862;2023-06-14T03:56:55;12.88;;;6.07;;
60169;SDS011;46042;49.444;6.862;2023-06-14T03:59:23;10.85;;;5.93;;
60169;SDS011;46042;49.444;6.862;2023-06-14T04:01:50;10.52;;;5.72;;
60169;SDS011;46042;49.444;6.862;2023-06-14T04:04:16;14.23;;;6.43;;
60169;SDS011;46042;49.444;6.862;2023-06-14T04:06:44;9.60;;;6.10;;
60169;SDS011;46042;49.444;6.862;2023-06-14T04:09:14;11.50;;;6.28;;
60169;SDS011;46042;49.444;6.862;2023-06-14T04:11:41;11.63;;;6.13;;
60169;SDS011;46042;49.444;6.862;2023-06-14T04:14:07;10.80;;;6.40;;
60169;SDS011;46042;49.444;6.862;2023-06-14T04:16:34;15.27;;;7.03;;
60169;SDS011;46042;49.444;6.862;2023-06-14T04:19:01;9.45;;;6.90;;
60169;SDS011;46042;49.444;6.862;2023-06-14T04:21:28;11.43;;;6.57;;
60169;SDS011;46042;49.444;6.862;2023-06-14T04:23:55;9.15;;;6.00;;
60169;SDS011;46042;49.444;6.862;2023-06-14T04:26:22;12.02;;;6.82;;
60169;SDS011;46042;49.444;6.862;2023-06-14T04:28:52;9.82;;;6.10;;
60169;SDS011;46042;49.444;6.862;2023-06-14T04:31:19;13.27;;;6.03;;
60169;SDS011;46042;49.444;6.862;2023-06-14T04:33:47;8.10;;;5.93;;
60169;SDS011;46042;49.444;6.862;2023-06-14T04:36:17;11.18;;;6.47;;
60169;SDS011;46042;49.444;6.862;2023-06-14T04:38:44;13.85;;;7.35;;
60169;SDS011;46042;49.444;6.862;2023-06-14T04:41:12;11.32;;;6.82;;
60169;SDS011;46042;49.444;6.862;2023-06-14T04:43:39;15.18;;;5.97;;
60169;SDS011;46042;49.444;6.862;2023-06-14T04:46:06;14.02;;;6.63;;
60169;SDS011;46042;49.444;6.862;2023-06-14T04:48:37;9.20;;;6.50;;
60169;SDS011;46042;49.444;6.862;2023-06-14T04:51:07;8.38;;;5.88;;
60169;SDS011;46042;49.444;6.862;2023-06-14T04:53:36;12.90;;;6.22;;
60169;SDS011;46042;49.444;6.862;2023-06-14T04:56:03;11.55;;;6.22;;
60169;SDS011;46042;49.444;6.862;2023-06-14T04:58:30;11.50;;;7.18;;
60169;SDS011;46042;49.444;6.862;2023-06-14T05:00:58;12.95;;;7.53;;
60169;SDS011;46042;49.444;6.862;2023-06-14T05:03:25;13.55;;;7.00;;
60169;SDS011;46042;49.444;6.862;2023-06-14T05:05:53;14.00;;;8.20;;
60169;SDS011;46042;49.444;6.862;2023-06-14T05:08:20;13.80;;;7.45;;
60169;SDS011;46042;49.444;6.862;2023-06-14T05:10:50;11.48;;;7.15;;
60169;SDS011;46042;49.444;6.862;2023-06-14T05:13:17;12.50;;;6.15;;
60169;SDS011;46042;49.444;6.862;2023-06-14T05:15:44;14.27;;;6.68;;
60169;SDS011;46042;49.444;6.862;2023-06-14T05:18:10;13.80;;;6.90;;
60169;SDS011;46042;49.444;6.862;2023-06-14T05:20:39;10.85;;;6.68;;
60169;SDS011;46042;49.444;6.862;2023-06-14T05:23:08;12.55;;;6.45;;
60169;SDS011;46042;49.444;6.862;2023-06-14T05:25:44;14.68;;;6.40;;
60169;SDS011;46042;49.444;6.862;2023-06-14T05:28:12;11.73;;;6.00;;
60169;SDS011;46042;49.444;6.862;2023-06-14T05:30:38;16.80;;;6.30;;
60169;SDS011;46042;49.444;6.862;2023-06-14T05:33:06;10.60;;;6.00;;
60169;SDS011;46042;49.444;6.862;2023-06-14T05:35:33;11.52;;;6.50;;
60169;SDS011;46042;49.444;6.862;2023-06-14T05:38:00;9.85;;;4.90;;
60169;SDS011;46042;49.444;6.862;2023-06-14T05:40:26;11.00;;;5.80;;
60169;SDS011;46042;49.444;6.862;2023-06-14T05:42:53;11.65;;;5.63;;
60169;SDS011;46042;49.444;6.862;2023-06-14T05:45:20;9.68;;;5.05;;
60169;SDS011;46042;49.444;6.862;2023-06-14T05:47:46;10.52;;;5.22;;
60169;SDS011;46042;49.444;6.862;2023-06-14T05:50:13;9.30;;;4.68;;
60169;SDS011;46042;49.444;6.862;2023-06-14T05:52:40;10.88;;;6.13;;
60169;SDS011;46042;49.444;6.862;2023-06-14T05:55:07;9.48;;;4.78;;
60169;SDS011;46042;49.444;6.862;2023-06-14T05:57:34;10.02;;;4.93;;
60169;SDS011;46042;49.444;6.862;2023-06-14T06:00:01;7.97;;;4.95;;
60169;SDS011;46042;49.444;6.862;2023-06-14T06:02:36;7.75;;;5.15;;
60169;SDS011;46042;49.444;6.862;2023-06-14T06:05:03;7.35;;;4.80;;
60169;SDS011;46042;49.444;6.862;2023-06-14T06:07:29;10.50;;;4.75;;
60169;SDS011;46042;49.444;6.862;2023-06-14T06:09:56;12.45;;;5.03;;
60169;SDS011;46042;49.444;6.862;2023-06-14T06:12:23;10.65;;;4.90;;
60169;SDS011;46042;49.444;6.862;2023-06-14T06:14:50;7.93;;;4.65;;
60169;SDS011;46042;49.444;6.862;2023-06-14T06:17:16;9.30;;;4.85;;
60169;SDS011;46042;49.444;6.862;2023-06-14T06:19:43;7.38;;;4.78;;
60169;SDS011;46042;49.444;6.862;2023-06-14T06:22:10;7.45;;;4.85;;
60169;SDS011;46042;49.444;6.862;2023-06-14T06:24:37;8.40;;;4.45;;
60169;SDS011;46042;49.444;6.862;2023-06-14T06:27:04;8.13;;;4.30;;
60169;SDS011;46042;49.444;6.862;2023-06-14T06:29:31;8.30;;;4.85;;
60169;SDS011;46042;49.444;6.862;2023-06-14T06:31:57;6.05;;;4.20;;
60169;SDS011;46042;49.444;6.862;2023-06-14T06:34:24;8.20;;;4.72;;
60169;SDS011;46042;49.444;6.862;2023-06-14T06:36:51;13.48;;;5.15;;
60169;SDS011;46042;49.444;6.862;2023-06-14T06:39:17;12.98;;;4.90;;
60169;SDS011;46042;49.444;6.862;2023-06-14T06:41:44;7.70;;;4.50;;
60169;SDS011;46042;49.444;6.862;2023-06-14T06:44:11;9.70;;;4.25;;
60169;SDS011;46042;49.444;6.862;2023-06-14T06:46:38;8.30;;;4.97;;
60169;SDS011;46042;49.444;6.862;2023-06-14T06:49:07;8.93;;;5.20;;
60169;SDS011;46042;49.444;6.862;2023-06-14T06:51:35;11.82;;;4.65;;
60169;SDS011;46042;49.444;6.862;2023-06-14T06:54:05;14.25;;;5.00;;
60169;SDS011;46042;49.444;6.862;2023-06-14T06:56:32;7.93;;;4.80;;
60169;SDS011;46042;49.444;6.862;2023-06-14T06:58:58;8.43;;;4.47;;
60169;SDS011;46042;49.444;6.862;2023-06-14T07:01:25;10.75;;;4.60;;
60169;SDS011;46042;49.444;6.862;2023-06-14T07:03:55;8.73;;;4.93;;
60169;SDS011;46042;49.444;6.862;2023-06-14T07:06:21;6.32;;;4.75;;
60169;SDS011;46042;49.444;6.862;2023-06-14T07:08:48;8.25;;;4.78;;
60169;SDS011;46042;49.444;6.862;2023-06-14T07:11:15;13.68;;;5.18;;
60169;SDS011;46042;49.444;6.862;2023-06-14T07:13:41;7.35;;;4.78;;
60169;SDS011;46042;49.444;6.862;2023-06-14T07:16:08;15.90;;;5.35;;
60169;SDS011;46042;49.444;6.862;2023-06-14T07:18:35;9.60;;;4.50;;
60169;SDS011;46042;49.444;6.862;2023-06-14T07:21:03;9.50;;;5.20;;
60169;SDS011;46042;49.444;6.862;2023-06-14T07:23:30;13.82;;;4.75;;
60169;SDS011;46042;49.444;6.862;2023-06-14T07:25:57;9.88;;;4.97;;
60169;SDS011;46042;49.444;6.862;2023-06-14T07:28:23;13.05;;;4.63;;
60169;SDS011;46042;49.444;6.862;2023-06-14T07:30:50;10.80;;;5.75;;
60169;SDS011;46042;49.444;6.862;2023-06-14T07:33:17;10.25;;;4.80;;
60169;SDS011;46042;49.444;6.862;2023-06-14T07:35:43;10.55;;;5.20;;
60169;SDS011;46042;49.444;6.862;2023-06-14T07:38:10;9.55;;;5.68;;
60169;SDS011;46042;49.444;6.862;2023-06-14T07:40:37;10.07;;;5.22;;
60169;SDS011;46042;49.444;6.862;2023-06-14T07:43:04;11.30;;;5.32;;
60169;SDS011;46042;49.444;6.862;2023-06-14T07:45:30;11.60;;;5.25;;
60169;SDS011;46042;49.444;6.862;2023-06-14T07:47:57;22.23;;;5.22;;
60169;SDS011;46042;49.444;6.862;2023-06-14T07:50:24;12.70;;;5.20;;
60169;SDS011;46042;49.444;6.862;2023-06-14T07:52:51;16.38;;;5.18;;
60169;SDS011;46042;49.444;6.862;2023-06-14T07:55:17;11.88;;;4.93;;
60169;SDS011;46042;49.444;6.862;2023-06-14T07:57:44;9.77;;;4.78;;
60169;SDS011;46042;49.444;6.862;2023-06-14T08:00:11;8.45;;;4.32;;
60169;SDS011;46042;49.444;6.862;2023-06-14T08:02:42;8.48;;;5.07;;
60169;SDS011;46042;49.444;6.862;2023-06-14T08:05:10;8.52;;;4.50;;
60169;SDS011;46042;49.444;6.862;2023-06-14T08:07:38;9.15;;;4.57;;
60169;SDS011;46042;49.444;6.862;2023-06-14T08:10:05;6.53;;;4.40;;
60169;SDS011;46042;49.444;6.862;2023-06-14T08:12:33;11.43;;;4.78;;
60169;SDS011;46042;49.444;6.862;2023-06-14T08:15:00;12.90;;;4.97;;
60169;SDS011;46042;49.444;6.862;2023-06-14T08:17:34;8.45;;;4.68;;
60169;SDS011;46042;49.444;6.862;2023-06-14T08:20:01;7.68;;;4.60;;
60169;SDS011;46042;49.444;6.862;2023-06-14T08:22:30;7.55;;;4.93;;
60169;SDS011;46042;49.444;6.862;2023-06-14T08:25:00;9.20;;;5.03;;
60169;SDS011;46042;49.444;6.862;2023-06-14T08:27:27;9.68;;;5.25;;
60169;SDS011;46042;49.444;6.862;2023-06-14T08:29:56;7.97;;;5.38;;
60169;SDS011;46042;49.444;6.862;2023-06-14T08:32:22;11.20;;;4.88;;
60169;SDS011;46042;49.444;6.862;2023-06-14T08:34:49;9.75;;;4.85;;
60169;SDS011;46042;49.444;6.862;2023-06-14T08:37:30;8.25;;;4.93;;
60169;SDS011;46042;49.444;6.862;2023-06-14T08:39:56;7.70;;;4.45;;
60169;SDS011;46042;49.444;6.862;2023-06-14T08:42:23;8.20;;;4.47;;
60169;SDS011;46042;49.444;6.862;2023-06-14T08:44:52;7.07;;;4.72;;
60169;SDS011;46042;49.444;6.862;2023-06-14T08:47:19;8.65;;;4.72;;
60169;SDS011;46042;49.444;6.862;2023-06-14T08:49:47;8.68;;;4.80;;
60169;SDS011;46042;49.444;6.862;2023-06-14T08:52:15;8.57;;;4.70;;
60169;SDS011;46042;49.444;6.862;2023-06-14T08:54:47;9.05;;;5.20;;
60169;SDS011;46042;49.444;6.862;2023-06-14T08:57:15;6.85;;;5.00;;
60169;SDS011;46042;49.444;6.862;2023-06-14T08:59:47;9.27;;;4.57;;
60169;SDS011;46042;49.444;6.862;2023-06-14T09:02:18;11.95;;;5.50;;
60169;SDS011;46042;49.444;6.862;2023-06-14T09:04:48;8.90;;;5.17;;
60169;SDS011;46042;49.444;6.862;2023-06-14T09:07:17;8.57;;;4.80;;
60169;SDS011;46042;49.444;6.862;2023-06-14T09:09:44;7.47;;;4.88;;
60169;SDS011;46042;49.444;6.862;2023-06-14T09:12:31;14.38;;;5.15;;
60169;SDS011;46042;49.444;6.862;2023-06-14T09:14:58;7.32;;;4.75;;
60169;SDS011;46042;49.444;6.862;2023-06-14T09:17:26;8.25;;;4.93;;
60169;SDS011;46042;49.444;6.862;2023-06-14T09:19:54;7.10;;;4.90;;
60169;SDS011;46042;49.444;6.862;2023-06-14T09:22:21;10.27;;;5.55;;
60169;SDS011;46042;49.444;6.862;2023-06-14T09:24:48;11.05;;;5.40;;
60169;SDS011;46042;49.444;6.862;2023-06-14T09:27:15;9.25;;;4.82;;
60169;SDS011;46042;49.444;6.862;2023-06-14T09:29:42;11.77;;;4.97;;
60169;SDS011;46042;49.444;6.862;2023-06-14T09:32:09;8.00;;;4.68;;
60169;SDS011;46042;49.444;6.862;2023-06-14T09:34:35;7.30;;;5.18;;
60169;SDS011;46042;49.444;6.862;2023-06-14T09:37:03;12.43;;;5.32;;
60169;SDS011;46042;49.444;6.862;2023-06-14T09:39:30;7.15;;;4.57;;
60169;SDS011;46042;49.444;6.862;2023-06-14T09:41:57;9.63;;;5.22;;
60169;SDS011;46042;49.444;6.862;2023-06-14T09:44:24;9.73;;;5.30;;
60169;SDS011;46042;49.444;6.862;2023-06-14T09:46:55;10.13;;;4.80;;
60169;SDS011;46042;49.444;6.862;2023-06-14T09:49:22;11.52;;;5.40;;
60169;SDS011;46042;49.444;6.862;2023-06-14T09:51:50;11.55;;;4.93;;
60169;SDS011;46042;49.444;6.862;2023-06-14T09:54:20;8.68;;;4.68;;
60169;SDS011;46042;49.444;6.862;2023-06-14T09:56:49;6.65;;;4.88;;
60169;SDS011;46042;49.444;6.862;2023-06-14T09:59:21;8.30;;;4.72;;
60169;SDS011;46042;49.444;6.862;2023-06-14T10:01:56;11.55;;;5.45;;
60169;SDS011;46042;49.444;6.862;2023-06-14T10:04:26;8.32;;;4.75;;
60169;SDS011;46042;49.444;6.862;2023-06-14T10:06:56;8.45;;;5.22;;
60169;SDS011;46042;49.444;6.862;2023-06-14T10:09:23;9.15;;;4.75;;
60169;SDS011;46042;49.444;6.862;2023-06-14T10:11:50;8.63;;;4.95;;
60169;SDS011;46042;49.444;6.862;2023-06-14T10:14:17;9.90;;;5.68;;
60169;SDS011;46042;49.444;6.862;2023-06-14T10:16:47;12.98;;;5.38;;
60169;SDS011;46042;49.444;6.862;2023-06-14T10:19:29;11.88;;;5.47;;
60169;SDS011;46042;49.444;6.862;2023-06-14T10:22:09;6.47;;;4.88;;
60169;SDS011;46042;49.444;6.862;2023-06-14T10:24:45;9.82;;;5.15;;
60169;SDS011;46042;49.444;6.862;2023-06-14T10:27:15;8.40;;;5.07;;
60169;SDS011;46042;49.444;6.862;2023-06-14T10:32:22;10.48;;;5.35;;
60169;SDS011;46042;49.444;6.862;2023-06-14T10:34:58;8.90;;;5.03;;
60169;SDS011;46042;49.444;6.862;2023-06-14T10:37:26;9.30;;;5.00;;
60169;SDS011;46042;49.444;6.862;2023-06-14T10:39:53;9.02;;;5.00;;
60169;SDS011;46042;49.444;6.862;2023-06-14T10:42:20;9.15;;;5.10;;
60169;SDS011;46042;49.444;6.862;2023-06-14T10:44:49;11.77;;;4.88;;
60169;SDS011;46042;49.444;6.862;2023-06-14T10:50:08;14.07;;;4.80;;
60169;SDS011;46042;49.444;6.862;2023-06-14T10:52:38;14.07;;;5.38;;
60169;SDS011;46042;49.444;6.862;2023-06-14T10:55:10;8.73;;;4.90;;
60169;SDS011;46042;49.444;6.862;2023-06-14T11:00:21;7.20;;;5.00;;
60169;SDS011;46042;49.444;6.862;2023-06-14T11:08:32;8.85;;;5.20;;
60169;SDS011;46042;49.444;6.862;2023-06-14T11:11:12;9.32;;;5.22;;
60169;SDS011;46042;49.444;6.862;2023-06-14T11:13:45;8.60;;;4.78;;
60169;SDS011;46042;49.444;6.862;2023-06-14T11:16:16;8.52;;;5.07;;
60169;SDS011;46042;49.444;6.862;2023-06-14T11:21:15;7.85;;;4.55;;
60169;SDS011;46042;49.444;6.862;2023-06-14T11:23:52;11.82;;;5.13;;
60169;SDS011;46042;49.444;6.862;2023-06-14T11:28:57;7.35;;;5.13;;
60169;SDS011;46042;49.444;6.862;2023-06-14T11:31:26;7.03;;;5.00;;
60169;SDS011;46042;49.444;6.862;2023-06-14T11:33:54;8.02;;;5.18;;
60169;SDS011;46042;49.444;6.862;2023-06-14T11:36:26;10.30;;;5.72;;
60169;SDS011;46042;49.444;6.862;2023-06-14T11:39:00;8.00;;;4.63;;
60169;SDS011;46042;49.444;6.862;2023-06-14T11:41:32;14.20;;;5.75;;
60169;SDS011;46042;49.444;6.862;2023-06-14T11:44:01;6.32;;;4.72;;
60169;SDS011;46042;49.444;6.862;2023-06-14T11:46:29;6.88;;;4.88;;
60169;SDS011;46042;49.444;6.862;2023-06-14T11:48:55;10.45;;;4.70;;
60169;SDS011;46042;49.444;6.862;2023-06-14T11:51:22;10.57;;;5.45;;
60169;SDS011;46042;49.444;6.862;2023-06-14T11:53:49;8.35;;;4.90;;
60169;SDS011;46042;49.444;6.862;2023-06-14T11:56:16;11.30;;;5.20;;
60169;SDS011;46042;49.444;6.862;2023-06-14T11:58:43;11.15;;;6.15;;
60169;SDS011;46042;49.444;6.862;2023-06-14T12:01:14;7.80;;;5.40;;
60169;SDS011;46042;49.444;6.862;2023-06-14T12:03:48;6.68;;;4.38;;
60169;SDS011;46042;49.444;6.862;2023-06-14T12:06:19;15.65;;;5.90;;
60169;SDS011;46042;49.444;6.862;2023-06-14T12:08:55;6.53;;;4.80;;
60169;SDS011;46042;49.444;6.862;2023-06-14T12:11:23;8.30;;;4.72;;
60169;SDS011;46042;49.444;6.862;2023-06-14T12:13:50;14.23;;;4.55;;
60169;SDS011;46042;49.444;6.862;2023-06-14T12:16:16;12.57;;;5.00;;
60169;SDS011;46042;49.444;6.862;2023-06-14T12:18:43;6.97;;;4.80;;
60169;SDS011;46042;49.444;6.862;2023-06-14T12:21:10;8.02;;;4.63;;
60169;SDS011;46042;49.444;6.862;2023-06-14T12:23:47;9.40;;;4.75;;
60169;SDS011;46042;49.444;6.862;2023-06-14T12:26:18;9.18;;;4.25;;
60169;SDS011;46042;49.444;6.862;2023-06-14T12:28:46;8.77;;;5.78;;
60169;SDS011;46042;49.444;6.862;2023-06-14T12:31:14;11.80;;;4.80;;
60169;SDS011;46042;49.444;6.862;2023-06-14T12:33:42;7.80;;;4.43;;
60169;SDS011;46042;49.444;6.862;2023-06-14T12:36:12;9.88;;;5.15;;
60169;SDS011;46042;49.444;6.862;2023-06-14T12:38:39;6.60;;;4.82;;
60169;SDS011;46042;49.444;6.862;2023-06-14T12:41:06;10.52;;;4.68;;
60169;SDS011;46042;49.444;6.862;2023-06-14T12:43:34;12.27;;;5.32;;
60169;SDS011;46042;49.444;6.862;2023-06-14T12:46:00;8.45;;;4.57;;
60169;SDS011;46042;49.444;6.862;2023-06-14T12:48:27;7.43;;;4.70;;
60169;SDS011;46042;49.444;6.862;2023-06-14T12:50:56;11.80;;;4.85;;
60169;SDS011;46042;49.444;6.862;2023-06-14T12:53:23;7.57;;;4.25;;
60169;SDS011;46042;49.444;6.862;2023-06-14T12:55:50;7.07;;;5.15;;
60169;SDS011;46042;49.444;6.862;2023-06-14T12:58:17;6.22;;;4.53;;
60169;SDS011;46042;49.444;6.862;2023-06-14T13:00:46;5.68;;;4.15;;
60169;SDS011;46042;49.444;6.862;2023-06-14T13:03:13;5.93;;;4.05;;
60169;SDS011;46042;49.444;6.862;2023-06-14T13:05:40;10.50;;;5.20;;
60169;SDS011;46042;49.444;6.862;2023-06-14T13:08:07;7.78;;;4.38;;
60169;SDS011;46042;49.444;6.862;2023-06-14T13:10:35;18.20;;;5.88;;
60169;SDS011;46042;49.444;6.862;2023-06-14T13:13:02;6.47;;;4.50;;
60169;SDS011;46042;49.444;6.862;2023-06-14T13:15:29;8.30;;;4.55;;
60169;SDS011;46042;49.444;6.862;2023-06-14T13:17:56;7.03;;;4.30;;
60169;SDS011;46042;49.444;6.862;2023-06-14T13:20:22;7.25;;;3.97;;
60169;SDS011;46042;49.444;6.862;2023-06-14T13:22:49;10.90;;;4.50;;
60169;SDS011;46042;49.444;6.862;2023-06-14T13:25:16;7.65;;;3.97;;
60169;SDS011;46042;49.444;6.862;2023-06-14T13:27:43;9.15;;;4.50;;
60169;SDS011;46042;49.444;6.862;2023-06-14T13:30:10;7.63;;;4.03;;
60169;SDS011;46042;49.444;6.862;2023-06-14T13:32:37;10.23;;;4.38;;
60169;SDS011;46042;49.444;6.862;2023-06-14T13:35:04;6.35;;;4.60;;
60169;SDS011;46042;49.444;6.862;2023-06-14T13:37:32;6.97;;;4.07;;
60169;SDS011;46042;49.444;6.862;2023-06-14T13:39:58;7.93;;;5.15;;
60169;SDS011;46042;49.444;6.862;2023-06-14T13:42:25;7.93;;;4.20;;
60169;SDS011;46042;49.444;6.862;2023-06-14T13:44:52;6.97;;;4.38;;
60169;SDS011;46042;49.444;6.862;2023-06-14T13:47:19;6.95;;;4.28;;
60169;SDS011;46042;49.444;6.862;2023-06-14T13:49:46;7.45;;;4.05;;
60169;SDS011;46042;49.444;6.862;2023-06-14T13:52:13;11.32;;;4.10;;
60169;SDS011;46042;49.444;6.862;2023-06-14T13:54:40;8.30;;;4.15;;
60169;SDS011;46042;49.444;6.862;2023-06-14T13:57:06;10.55;;;4.45;;
60169;SDS011;46042;49.444;6.862;2023-06-14T13:59:33;8.25;;;4.20;;
60169;SDS011;46042;49.444;6.862;2023-06-14T14:02:01;6.63;;;3.88;;
60169;SDS011;46042;49.444;6.862;2023-06-14T14:04:28;8.85;;;3.90;;
60169;SDS011;46042;49.444;6.862;2023-06-14T14:06:55;7.15;;;4.03;;
60169;SDS011;46042;49.444;6.862;2023-06-14T14:09:21;11.48;;;4.15;;
60169;SDS011;46042;49.444;6.862;2023-06-14T14:11:48;8.40;;;4.22;;
60169;SDS011;46042;49.444;6.862;2023-06-14T14:14:16;6.13;;;4.30;;
60169;SDS011;46042;49.444;6.862;2023-06-14T14:16:42;7.80;;;4.18;;
60169;SDS011;46042;49.444;6.862;2023-06-14T14:19:09;6.30;;;4.13;;
60169;SDS011;46042;49.444;6.862;2023-06-14T14:21:36;8.77;;;4.25;;
60169;SDS011;46042;49.444;6.862;2023-06-14T14:24:04;6.40;;;3.97;;
60169;SDS011;46042;49.444;6.862;2023-06-14T14:26:31;6.03;;;4.25;;
60169;SDS011;46042;49.444;6.862;2023-06-14T14:28:58;6.97;;;4.10;;
60169;SDS011;46042;49.444;6.862;2023-06-14T14:31:24;12.95;;;3.85;;
60169;SDS011;46042;49.444;6.862;2023-06-14T14:33:51;8.68;;;4.50;;
60169;SDS011;46042;49.444;6.862;2023-06-14T14:36:18;12.15;;;4.25;;
60169;SDS011;46042;49.444;6.862;2023-06-14T14:38:45;7.25;;;3.30;;
60169;SDS011;46042;49.444;6.862;2023-06-14T14:41:13;11.65;;;3.65;;
60169;SDS011;46042;49.444;6.862;2023-06-14T14:43:40;8.95;;;3.60;;
60169;SDS011;46042;49.444;6.862;2023-06-14T14:46:07;6.50;;;3.95;;
60169;SDS011;46042;49.444;6.862;2023-06-14T14:48:33;6.07;;;3.60;;
60169;SDS011;46042;49.444;6.862;2023-06-14T14:51:00;8.32;;;3.53;;
60169;SDS011;46042;49.444;6.862;2023-06-14T14:53:27;7.63;;;3.80;;
60169;SDS011;46042;49.444;6.862;2023-06-14T14:55:54;6.07;;;3.30;;
60169;SDS011;46042;49.444;6.862;2023-06-14T14:58:20;8.15;;;3.88;;
60169;SDS011;46042;49.444;6.862;2023-06-14T15:00:47;7.13;;;3.20;;
60169;SDS011;46042;49.444;6.862;2023-06-14T15:03:14;5.88;;;3.97;;
60169;SDS011;46042;49.444;6.862;2023-06-14T15:05:41;5.93;;;3.55;;
60169;SDS011;46042;49.444;6.862;2023-06-14T15:08:08;6.38;;;3.58;;
60169;SDS011;46042;49.444;6.862;2023-06-14T15:10:38;4.85;;;3.85;;
60169;SDS011;46042;49.444;6.862;2023-06-14T15:13:07;9.07;;;3.60;;